Time;durP1;ratioP1;P1;durP2;ratioP2;P2;SDS_P1;SDS_P2;PMS_P1;PMS_P2;Temp;Humidity;BMP_temperature;BMP_pressure;BME280_temperature;BME280_humidity;BME280_pressure;Samples;Min_cycle;Max_cycle;Signal;HPM_P1;HPM_P2
2022/06/04 00:00:21;;;;;;;10.38;8.10;;;;;;;24.92;51.18;99457.00;4126890;28;20304;-73
2022/06/04 00:02:22;;;;;;;10.15;8.65;;;;;;;25.17;51.35;99450.91;4125953;28;20238;-73
2022/06/04 00:04:24;;;;;;;8.50;7.78;;;;;;;24.93;51.08;99466.78;4121253;28;20810;-73
2022/06/04 00:06:26;;;;;;;10.88;8.75;;;;;;;24.55;52.00;99465.09;4123955;28;20531;-73
2022/06/04 00:08:29;;;;;;;9.50;8.45;;;;;;;25.05;51.74;99459.25;4123949;28;20233;-73
2022/06/04 00:15:30;;;;;;;9.90;8.73;;;;;;;25.21;51.07;99462.06;4126073;28;20242;-73
2022/06/04 00:17:32;;;;;;;11.50;8.68;;;;;;;25.05;51.22;99478.31;4125878;28;20341;-73
2022/06/04 00:19:34;;;;;;;9.55;8.65;;;;;;;24.88;51.63;99466.75;4107033;28;20234;-73
2022/06/04 00:21:35;;;;;;;11.10;8.60;;;;;;;25.08;51.48;99457.09;4108266;28;20289;-73
2022/06/04 00:23:37;;;;;;;9.80;8.00;;;;;;;24.49;52.05;99461.50;4107863;28;20231;-74
2022/06/04 00:25:42;;;;;;;12.52;10.60;;;;;;;23.83;54.10;99445.38;4107457;28;20239;-73
2022/06/04 00:27:43;;;;;;;13.90;12.45;;;;;;;22.83;55.75;99451.59;4111285;28;20297;-73
2022/06/04 00:29:45;;;;;;;11.70;10.50;;;;;;;23.43;54.75;99428.28;4108939;28;20242;-74
2022/06/04 00:31:47;;;;;;;10.53;9.43;;;;;;;23.10;56.03;99431.94;4108829;28;20242;-73
2022/06/04 00:33:49;;;;;;;10.77;9.67;;;;;;;23.13;55.62;99426.00;4108065;28;20764;-73
2022/06/04 00:35:54;;;;;;;11.17;10.03;;;;;;;22.22;57.47;99440.50;4102775;28;20317;-73
2022/06/04 00:37:57;;;;;;;10.60;9.60;;;;;;;22.67;56.72;99419.88;4109046;28;20239;-73
2022/06/04 00:39:59;;;;;;;11.93;9.50;;;;;;;22.69;56.22;99423.97;4107758;28;20265;-73
2022/06/04 00:42:21;;;;;;;11.00;9.93;;;;;;;23.19;55.54;99416.88;4110019;28;20664;-73
2022/06/04 00:44:48;;;;;;;11.13;10.03;;;;;;;23.07;55.85;99408.84;4109164;28;20606;-74
2022/06/04 00:47:13;;;;;;;11.47;10.30;;;;;;;23.48;54.36;99422.94;4113971;28;20239;-73
2022/06/04 00:49:18;;;;;;;11.23;10.13;;;;;;;23.78;53.82;99426.31;4107159;28;20283;-74
2022/06/04 00:51:23;;;;;;;10.57;9.17;;;;;;;23.55;54.39;99425.44;4108035;28;20290;-74
2022/06/04 00:53:24;;;;;;;10.43;9.53;;;;;;;24.07;53.42;99426.88;4108304;28;20238;-73
2022/06/04 00:55:47;;;;;;;9.53;8.50;;;;;;;24.46;52.36;99445.72;4102763;28;20289;-74
2022/06/04 00:57:57;;;;;;;10.63;9.63;;;;;;;24.28;52.25;99455.91;4124187;28;20226;-73
2022/06/04 01:00:20;;;;;;;9.80;8.80;;;;;;;24.73;51.53;99459.25;4123359;28;20591;-73
2022/06/04 01:02:31;;;;;;;9.50;8.60;;;;;;;24.40;51.98;99457.66;4124145;28;20270;-74
2022/06/04 01:04:55;;;;;;;9.20;8.30;;;;;;;24.49;51.87;99464.22;4116684;28;20678;-74
2022/06/04 01:07:03;;;;;;;9.57;8.77;;;;;;;23.90;53.41;99460.38;4127143;28;20340;-73
2022/06/04 01:09:24;;;;;;;9.07;8.27;;;;;;;24.56;51.59;99466.75;4126829;28;20292;-73
2022/06/04 01:11:33;;;;;;;9.40;8.50;;;;;;;24.76;51.22;99472.34;4122382;28;20246;-73
2022/06/04 01:13:54;;;;;;;10.03;8.43;;;;;;;24.86;50.72;99475.16;4139223;28;20229;-73
2022/06/04 01:16:34;;;;;;;9.50;8.60;;;;;;;25.05;50.84;99472.84;4135086;28;20300;-74
2022/06/04 01:18:47;;;;;;;10.23;9.33;;;;;;;24.67;51.32;99473.91;4131945;28;20751;-74
2022/06/04 01:21:16;;;;;;;10.87;9.97;;;;;;;24.53;51.07;99469.97;4125306;28;20242;-74
2022/06/04 01:23:42;;;;;;;11.37;10.03;;;;;;;24.67;50.98;99472.00;4122839;28;20624;-74
2022/06/04 01:26:26;;;;;;;11.00;9.07;;;;;;;23.93;52.03;99476.16;4101094;28;20707;-73
2022/06/04 01:28:31;;;;;;;9.50;8.50;;;;;;;23.76;52.64;99481.66;4121718;28;20238;-73
2022/06/04 01:30:43;;;;;;;8.97;8.03;;;;;;;24.41;51.34;99470.97;4125285;28;20293;-73
2022/06/04 01:33:03;;;;;;;9.27;7.70;;;;;;;24.55;50.80;99471.38;4122322;28;20234;-74
2022/06/04 01:35:19;;;;;;;9.23;7.10;;;;;;;24.69;50.24;99475.28;4121512;28;20281;-74
2022/06/04 01:37:38;;;;;;;9.80;7.27;;;;;;;24.74;50.17;99477.22;4125988;28;20772;-73
2022/06/04 01:42:05;;;;;;;8.57;7.33;;;;;;;24.34;50.93;99496.69;4125745;28;20242;-73
2022/06/04 01:44:12;;;;;;;8.80;8.00;;;;;;;24.11;51.40;99493.19;4125828;28;20308;-73
2022/06/04 01:46:19;;;;;;;7.70;7.00;;;;;;;24.60;50.74;99487.72;4123247;28;20297;-73
2022/06/04 01:48:23;;;;;;;9.43;6.63;;;;;;;24.62;50.18;99495.59;4126065;28;20238;-73
2022/06/04 01:50:43;;;;;;;7.57;6.77;;;;;;;24.36;50.41;99492.63;4125954;28;20233;-73
2022/06/04 01:52:47;;;;;;;7.90;7.10;;;;;;;24.51;50.53;99494.69;4125332;28;20237;-74
2022/06/04 01:54:56;;;;;;;8.30;7.60;;;;;;;24.03;51.68;99485.50;4126604;28;20245;-73
2022/06/04 01:57:14;;;;;;;9.13;8.32;;;;;;;24.15;51.32;99488.88;4127685;28;20917;-74
2022/06/04 01:59:35;;;;;;;9.75;7.50;;;;;;;23.46;52.64;99492.91;4126750;28;20297;-73
2022/06/04 02:01:38;;;;;;;7.40;6.70;;;;;;;22.67;54.49;99479.50;4124145;28;20312;-73
2022/06/04 02:03:59;;;;;;;7.73;6.83;;;;;;;22.63;54.33;99477.28;4123725;28;20264;-73
2022/06/04 02:06:23;;;;;;;8.17;7.37;;;;;;;22.91;53.72;99474.72;4124491;28;20911;-73
2022/06/04 02:08:40;;;;;;;7.83;7.13;;;;;;;23.22;53.12;99467.09;4130832;28;20292;-73
2022/06/04 02:10:58;;;;;;;7.07;6.37;;;;;;;23.71;52.02;99456.34;4127911;28;20291;-73
2022/06/04 02:13:04;;;;;;;8.07;7.27;;;;;;;23.43;52.07;99455.44;4126900;28;20292;-73
2022/06/04 02:15:09;;;;;;;8.63;6.77;;;;;;;24.03;51.07;99447.47;4124487;28;20670;-73
2022/06/04 02:17:17;;;;;;;7.50;6.70;;;;;;;23.75;51.50;99458.31;4125362;28;20234;-72
2022/06/04 02:19:19;;;;;;;8.73;6.47;;;;;;;23.79;51.60;99458.63;4125416;28;20236;-73
2022/06/04 02:21:22;;;;;;;7.47;6.77;;;;;;;24.39;50.25;99456.81;4127539;28;20986;-73
2022/06/04 02:23:24;;;;;;;8.43;7.00;;;;;;;24.48;50.15;99455.28;4128098;28;20261;-73
2022/06/04 02:25:29;;;;;;;9.63;7.50;;;;;;;24.43;50.10;99466.09;4125082;28;20286;-73
2022/06/04 02:27:31;;;;;;;7.40;6.70;;;;;;;24.39;50.11;99464.97;4124635;28;20234;-73
2022/06/04 02:29:37;;;;;;;7.97;6.27;;;;;;;24.41;50.14;99465.53;4123319;28;20234;-73
2022/06/04 02:31:39;;;;;;;8.60;7.17;;;;;;;24.05;51.02;99458.91;4120908;28;20233;-74
2022/06/04 02:33:56;;;;;;;8.00;7.30;;;;;;;24.39;50.36;99461.44;4122122;28;20320;-74
2022/06/04 02:36:12;;;;;;;7.73;6.47;;;;;;;24.12;50.81;99457.59;4130227;28;20237;-73
2022/06/04 02:38:28;;;;;;;9.20;6.90;;;;;;;23.60;51.82;99458.09;4125975;28;20288;-73
2022/06/04 02:41:13;;;;;;;9.23;7.20;;;;;;;24.20;51.12;99434.63;4124053;28;20242;-74
2022/06/04 02:43:18;;;;;;;8.30;7.50;;;;;;;24.13;50.71;99453.00;4119621;28;20234;-73
2022/06/04 02:45:37;;;;;;;8.43;7.53;;;;;;;23.81;51.80;99437.47;4117112;28;20333;-74
2022/06/04 02:48:14;;;;;;;9.00;7.77;;;;;;;24.15;51.41;99428.31;4126142;28;20691;-73
2022/06/04 02:50:22;;;;;;;9.10;8.20;;;;;;;24.22;51.23;99439.81;4132259;28;20229;-74
2022/06/04 02:52:25;;;;;;;9.67;8.67;;;;;;;23.93;51.27;99440.03;4127973;28;20674;-74
2022/06/04 02:54:39;;;;;;;9.77;8.30;;;;;;;23.49;52.31;99440.06;4126933;28;20229;-74
2022/06/04 02:56:42;;;;;;;8.10;7.30;;;;;;;23.75;51.53;99441.19;4127672;28;20660;-74
2022/06/04 02:58:51;;;;;;;8.17;7.47;;;;;;;24.25;51.08;99429.25;4121635;28;20470;-73
2022/06/04 03:00:56;;;;;;;9.07;7.80;;;;;;;23.95;51.32;99430.53;4122878;28;20241;-73
2022/06/04 03:02:58;;;;;;;7.80;7.10;;;;;;;24.01;51.55;99428.72;4125224;28;20244;-73
2022/06/04 03:05:07;;;;;;;7.87;7.07;;;;;;;24.47;50.58;99428.34;4125075;28;20233;-73
2022/06/04 03:07:10;;;;;;;8.23;7.43;;;;;;;24.46;50.55;99426.69;4129109;28;20241;-73
2022/06/04 03:09:16;;;;;;;8.75;7.85;;;;;;;23.94;51.54;99439.78;4129103;28;20241;-73
2022/06/04 03:11:18;;;;;;;8.38;7.55;;;;;;;23.20;53.29;99445.66;4121803;28;20293;-74
2022/06/04 03:13:20;;;;;;;8.60;7.60;;;;;;;23.35;52.90;99443.13;4130869;28;20234;-74
2022/06/04 03:15:22;;;;;;;9.02;7.38;;;;;;;22.84;54.14;99447.78;4125498;28;20249;-74
2022/06/04 03:17:24;;;;;;;11.20;7.93;;;;;;;24.10;51.60;99431.78;4118257;28;20723;-73
2022/06/04 03:19:26;;;;;;;8.98;8.07;;;;;;;24.48;50.88;99447.13;4124616;28;20237;-74
2022/06/04 03:21:31;;;;;;;9.25;8.35;;;;;;;24.56;50.88;99445.81;4124389;28;20678;-73
2022/06/04 03:23:33;;;;;;;11.18;8.48;;;;;;;24.32;51.02;99467.06;4126225;28;20241;-74
2022/06/04 03:25:36;;;;;;;9.35;8.10;;;;;;;23.79;52.14;99474.06;4120598;28;20718;-74
2022/06/04 03:27:38;;;;;;;9.15;8.25;;;;;;;24.12;51.89;99468.47;4129262;28;20246;-73
2022/06/04 03:29:40;;;;;;;8.88;7.80;;;;;;;23.29;53.29;99475.88;4118463;28;20347;-74
2022/06/04 03:31:41;;;;;;;8.50;7.60;;;;;;;22.84;53.99;99459.47;4123504;28;20295;-73
2022/06/04 03:33:43;;;;;;;10.23;7.93;;;;;;;23.60;52.82;99454.59;4119607;28;20241;-73
2022/06/04 03:35:45;;;;;;;8.93;7.50;;;;;;;24.31;51.20;99460.81;4125336;28;20233;-74
2022/06/04 03:37:46;;;;;;;10.85;7.53;;;;;;;22.43;55.32;99461.50;4123681;28;20946;-73
2022/06/04 03:39:48;;;;;;;9.93;8.68;;;;;;;23.09;53.83;99465.53;4125528;28;20237;-73
2022/06/04 03:41:50;;;;;;;10.20;7.75;;;;;;;23.71;52.11;99465.31;4125891;28;20245;-73
2022/06/04 03:43:52;;;;;;;10.00;8.18;;;;;;;23.66;52.30;99467.97;4122028;28;20288;-74
2022/06/04 03:45:54;;;;;;;11.50;8.05;;;;;;;24.30;51.24;99461.91;4124287;28;20234;-74
2022/06/04 03:47:57;;;;;;;9.00;8.10;;;;;;;24.18;51.39;99461.25;4124035;28;20248;-73
2022/06/04 03:49:58;;;;;;;10.77;8.38;;;;;;;24.77;49.80;99465.84;4127061;28;20234;-74
2022/06/04 03:52:01;;;;;;;10.93;8.27;;;;;;;24.79;49.98;99465.59;4130207;28;20353;-73
2022/06/04 03:54:02;;;;;;;9.73;8.77;;;;;;;24.77;50.22;99465.84;4132758;28;20242;-73
2022/06/04 03:56:04;;;;;;;9.97;9.07;;;;;;;24.67;50.06;99461.13;4125478;28;20246;-73
2022/06/04 03:58:06;;;;;;;11.48;10.00;;;;;;;24.16;51.34;99459.81;4126386;28;20234;-73
2022/06/04 04:00:22;;;;;;;11.48;9.18;;;;;;;24.17;51.57;99461.50;4129580;28;20237;-74
2022/06/04 04:02:24;;;;;;;10.40;9.33;;;;;;;24.43;50.66;99471.53;4122980;28;20245;-73
2022/06/04 04:04:26;;;;;;;11.33;9.97;;;;;;;24.07;51.42;99487.44;4128000;28;20714;-74
2022/06/04 04:06:31;;;;;;;10.97;9.97;;;;;;;24.16;51.14;99498.69;4125866;28;20240;-73
2022/06/04 04:08:33;;;;;;;10.50;9.50;;;;;;;24.11;51.47;99498.63;4115275;28;20229;-73
2022/06/04 04:10:38;;;;;;;10.47;9.37;;;;;;;24.49;50.62;99494.94;4110581;28;20234;-73
2022/06/04 04:12:40;;;;;;;9.77;8.87;;;;;;;23.93;51.23;99487.00;4112717;28;21171;-74
2022/06/04 04:14:42;;;;;;;9.20;8.30;;;;;;;23.85;52.05;99486.66;4115895;28;20295;-74
2022/06/04 04:16:43;;;;;;;10.10;8.70;;;;;;;24.05;51.54;99486.88;4124101;28;20746;-73
2022/06/04 04:18:45;;;;;;;12.37;8.70;;;;;;;23.87;51.88;99498.06;4122521;28;20237;-73
2022/06/04 04:20:48;;;;;;;9.87;8.70;;;;;;;24.34;51.24;99491.28;4125497;28;21242;-74
2022/06/04 04:22:50;;;;;;;9.70;8.70;;;;;;;24.09;51.33;99492.59;4124505;28;20238;-73
2022/06/04 04:24:54;;;;;;;11.37;8.30;;;;;;;24.24;51.42;99487.34;4117636;28;20239;-74
2022/06/04 04:26:56;;;;;;;8.93;8.03;;;;;;;24.42;50.76;99498.97;4110406;28;20731;-74
2022/06/04 04:28:57;;;;;;;8.70;7.80;;;;;;;24.38;50.67;99505.97;4117797;28;20269;-73
2022/06/04 04:30:59;;;;;;;9.20;7.80;;;;;;;24.30;50.83;99497.22;4123016;28;20249;-73
2022/06/04 04:33:02;;;;;;;9.17;8.20;;;;;;;23.89;51.84;99510.31;4120460;28;20230;-73
2022/06/04 04:35:06;;;;;;;9.30;8.40;;;;;;;24.14;51.73;99522.53;4120621;28;20591;-73
2022/06/04 04:37:08;;;;;;;10.17;9.03;;;;;;;24.08;51.88;99537.16;4125959;28;20234;-73
2022/06/04 04:39:10;;;;;;;10.37;9.37;;;;;;;24.49;51.31;99527.56;4124067;28;20617;-73
2022/06/04 04:41:14;;;;;;;10.73;9.40;;;;;;;24.59;51.10;99531.47;4125628;28;20703;-73
2022/06/04 04:43:16;;;;;;;9.90;8.90;;;;;;;24.23;51.65;99534.63;4124762;28;20238;-73
2022/06/04 04:45:19;;;;;;;9.77;8.77;;;;;;;23.74;52.98;99546.25;4123956;28;20240;-73
2022/06/04 04:47:21;;;;;;;8.60;7.70;;;;;;;23.73;53.42;99554.63;4126683;28;20240;-73
2022/06/04 04:49:23;;;;;;;9.00;8.10;;;;;;;22.80;55.42;99555.88;4125339;28;20238;-73
2022/06/04 04:51:26;;;;;;;9.13;8.23;;;;;;;24.11;52.21;99545.59;4123610;28;20325;-73
2022/06/04 04:53:28;;;;;;;11.20;8.23;;;;;;;24.27;52.13;99562.91;4125801;28;20238;-73
2022/06/04 04:55:32;;;;;;;9.18;8.38;;;;;;;24.55;50.81;99569.22;4119091;28;20249;-73
2022/06/04 04:57:34;;;;;;;8.80;7.77;;;;;;;24.21;51.96;99566.69;4121966;28;20233;-75
2022/06/04 04:59:36;;;;;;;9.38;8.25;;;;;;;23.81;53.51;99575.09;4126140;28;20401;-73
2022/06/04 05:01:38;;;;;;;9.00;8.05;;;;;;;24.12;52.25;99562.72;4125830;28;20235;-72
2022/06/04 05:03:39;;;;;;;9.32;8.43;;;;;;;24.18;52.45;99564.47;4133743;28;20671;-75
2022/06/04 05:05:41;;;;;;;9.27;8.27;;;;;;;24.21;52.42;99572.09;4123932;28;20241;-73
2022/06/04 05:07:44;;;;;;;9.50;8.50;;;;;;;24.65;51.36;99579.38;4128178;28;20241;-73
2022/06/04 05:09:46;;;;;;;9.73;8.73;;;;;;;24.63;51.71;99574.19;4127693;28;20275;-73
2022/06/04 05:11:48;;;;;;;9.70;8.77;;;;;;;24.56;51.54;99584.41;4121960;28;20316;-73
2022/06/04 05:13:52;;;;;;;9.80;8.45;;;;;;;24.44;51.85;99584.56;4127641;28;20293;-73
2022/06/04 05:15:53;;;;;;;11.40;8.68;;;;;;;24.72;51.55;99579.16;4118492;28;20250;-73
2022/06/04 05:17:55;;;;;;;10.03;9.03;;;;;;;24.62;51.67;99588.84;4111599;28;20234;-73
2022/06/04 05:19:57;;;;;;;10.82;9.73;;;;;;;24.82;51.60;99579.28;4107901;28;20234;-73
2022/06/04 05:21:58;;;;;;;11.45;9.75;;;;;;;25.04;51.27;99587.34;4105928;28;20258;-73
2022/06/04 05:24:00;;;;;;;10.80;9.70;;;;;;;25.08;50.86;99583.03;4106807;28;20242;-72
2022/06/04 05:26:02;;;;;;;10.63;9.55;;;;;;;24.65;51.77;99593.78;4105397;28;20716;-73
2022/06/04 05:28:04;;;;;;;9.18;8.27;;;;;;;23.86;53.57;99597.72;4108839;28;20246;-73
2022/06/04 05:30:07;;;;;;;9.10;8.20;;;;;;;23.24;55.10;99595.94;4104811;28;20719;-73
2022/06/04 05:32:12;;;;;;;9.55;8.70;;;;;;;23.70;54.22;99595.84;4121476;28;20509;-73
2022/06/04 05:34:16;;;;;;;10.43;8.68;;;;;;;22.99;55.87;99612.63;4122597;28;20249;-73
2022/06/04 05:36:17;;;;;;;10.00;9.00;;;;;;;22.19;57.98;99608.91;4124021;28;20250;-74
2022/06/04 05:38:20;;;;;;;9.23;8.32;;;;;;;21.36;59.59;99612.47;4125532;28;21057;-72
2022/06/04 05:40:21;;;;;;;9.32;8.43;;;;;;;21.27;60.65;99588.69;4125509;28;20246;-73
2022/06/04 05:42:23;;;;;;;10.57;9.52;;;;;;;22.16;57.88;99585.81;4125455;28;20299;-74
2022/06/04 05:44:25;;;;;;;13.60;9.82;;;;;;;21.47;59.46;99597.28;4114536;28;20231;-74
2022/06/04 05:46:27;;;;;;;11.05;10.05;;;;;;;21.98;58.60;99589.50;4107024;28;20238;-75
2022/06/04 05:48:29;;;;;;;10.95;9.95;;;;;;;22.30;57.78;99588.28;4115131;28;20285;-72
2022/06/04 05:50:31;;;;;;;14.07;10.98;;;;;;;23.16;55.40;99593.66;4141565;28;20217;-73
2022/06/04 05:52:33;;;;;;;11.80;10.70;;;;;;;21.52;60.02;99599.28;4142228;28;20248;-73
2022/06/04 05:54:34;;;;;;;17.42;10.93;;;;;;;20.84;62.24;99600.56;4121375;28;20242;-74
2022/06/04 05:56:46;;;;;;;13.20;11.98;;;;;;;22.86;56.80;99580.38;4126621;28;20284;-74
2022/06/04 05:58:50;;;;;;;14.05;12.65;;;;;;;22.90;56.88;99600.50;4132350;28;20233;-73
2022/06/04 06:01:00;;;;;;;15.53;13.93;;;;;;;22.08;58.89;99605.16;4124925;28;20241;-74
2022/06/04 06:03:01;;;;;;;20.80;15.80;;;;;;;22.45;58.24;99596.72;4126395;28;20744;-73
2022/06/04 06:05:04;;;;;;;16.70;15.00;;;;;;;22.08;59.58;99603.28;4121990;28;20760;-73
2022/06/04 06:07:05;;;;;;;18.88;16.90;;;;;;;22.07;59.94;99584.56;4123150;28;20242;-73
2022/06/04 06:09:09;;;;;;;19.13;17.13;;;;;;;21.54;61.13;99599.88;4122783;28;20292;-73
2022/06/04 06:11:14;;;;;;;17.85;16.15;;;;;;;22.48;58.94;99584.56;4122558;28;21003;-74
2022/06/04 06:13:16;;;;;;;19.58;17.67;;;;;;;22.99;58.00;99589.03;4125153;28;20968;-73
2022/06/04 06:15:18;;;;;;;18.93;16.87;;;;;;;23.52;55.85;99602.38;4124026;28;20233;-74
2022/06/04 06:17:19;;;;;;;18.50;16.70;;;;;;;23.90;54.69;99622.47;4123850;28;20233;-73
2022/06/04 06:19:22;;;;;;;18.33;16.52;;;;;;;23.85;55.68;99620.50;4123717;28;20233;-73
2022/06/04 06:21:27;;;;;;;18.67;16.88;;;;;;;24.45;53.98;99624.28;4123896;28;20245;-74
2022/06/04 06:23:28;;;;;;;17.08;15.48;;;;;;;24.47;53.59;99626.72;4125377;28;20226;-73
2022/06/04 06:25:30;;;;;;;18.42;16.65;;;;;;;24.75;53.07;99642.00;4118916;28;20307;-75
2022/06/04 06:27:32;;;;;;;17.15;14.98;;;;;;;23.80;55.17;99638.59;4122908;28;20237;-74
2022/06/04 06:29:34;;;;;;;17.40;15.55;;;;;;;23.54;55.98;99628.16;4123722;28;20229;-73
2022/06/04 06:31:36;;;;;;;19.75;16.13;;;;;;;24.58;53.76;99628.50;4129031;28;20304;-73
2022/06/04 06:33:38;;;;;;;18.48;16.75;;;;;;;24.10;55.02;99647.16;4125558;28;20230;-74
2022/06/04 06:35:40;;;;;;;17.83;16.23;;;;;;;24.26;54.85;99634.66;4128973;28;20242;-74
2022/06/04 06:37:41;;;;;;;17.27;15.57;;;;;;;25.29;52.40;99632.16;4120766;28;20237;-73
2022/06/04 06:39:43;;;;;;;18.13;16.38;;;;;;;24.84;53.39;99634.22;4123177;28;20241;-74
2022/06/04 06:41:46;;;;;;;17.73;15.82;;;;;;;25.51;51.67;99626.63;4118550;28;20296;-73
2022/06/04 06:43:50;;;;;;;18.15;16.25;;;;;;;25.54;51.84;99624.25;4124083;28;20240;-73
2022/06/04 06:46:01;;;;;;;16.75;15.15;;;;;;;25.40;51.52;99626.56;4125580;28;20619;-73
2022/06/04 06:48:02;;;;;;;17.67;15.88;;;;;;;24.84;53.60;99624.16;4122282;28;20249;-73
2022/06/04 06:50:05;;;;;;;17.38;15.75;;;;;;;25.33;52.36;99617.78;4124776;28;20292;-74
2022/06/04 06:52:06;;;;;;;18.10;15.82;;;;;;;25.70;51.38;99630.59;4122872;28;20299;-74
2022/06/04 06:54:08;;;;;;;19.20;17.00;;;;;;;25.42;52.06;99629.03;4120446;28;20234;-74
2022/06/04 06:56:22;;;;;;;17.13;15.43;;;;;;;24.29;53.95;99645.00;4127267;28;20238;-73
2022/06/04 06:58:24;;;;;;;17.10;15.18;;;;;;;22.79;58.30;99645.56;4124070;28;20238;-73
2022/06/04 07:00:25;;;;;;;16.88;15.27;;;;;;;24.53;54.16;99625.72;4123399;28;20230;-73
2022/06/04 07:02:27;;;;;;;17.40;15.80;;;;;;;24.23;55.30;99624.28;4119341;28;20238;-74
2022/06/04 07:04:29;;;;;;;17.73;15.85;;;;;;;25.14;52.80;99621.97;4120136;28;20337;-74
2022/06/04 07:06:46;;;;;;;16.20;14.60;;;;;;;24.06;54.92;99637.91;4109475;28;20274;-73
2022/06/04 07:08:47;;;;;;;15.45;13.90;;;;;;;24.20;55.01;99619.34;4105727;28;20238;-74
2022/06/04 07:10:49;;;;;;;16.33;14.73;;;;;;;24.62;54.01;99617.94;4110197;28;20246;-73
2022/06/04 07:12:51;;;;;;;17.85;16.10;;;;;;;24.41;54.63;99616.88;4108308;28;20321;-74
2022/06/04 07:15:01;;;;;;;16.25;14.75;;;;;;;23.11;57.82;99612.56;4101968;28;20242;-74
2022/06/04 07:17:05;;;;;;;17.08;15.40;;;;;;;23.51;56.75;99608.84;4106587;28;20255;-73
2022/06/04 07:19:08;;;;;;;17.67;15.95;;;;;;;23.90;56.20;99606.97;4107842;28;20242;-73
2022/06/04 07:21:10;;;;;;;17.20;15.50;;;;;;;23.79;55.51;99613.38;4118630;28;20274;-74
2022/06/04 07:23:12;;;;;;;16.40;14.80;;;;;;;23.67;56.71;99613.47;4128279;28;20284;-74
2022/06/04 07:25:14;;;;;;;18.08;16.30;;;;;;;24.89;53.67;99604.34;4120166;28;20234;-73
2022/06/04 07:27:16;;;;;;;17.33;15.35;;;;;;;25.15;53.14;99610.00;4124615;28;20349;-74
2022/06/04 07:29:19;;;;;;;17.83;15.57;;;;;;;25.40;52.02;99614.88;4127570;28;20238;-74
2022/06/04 07:31:21;;;;;;;18.67;16.80;;;;;;;26.12;50.84;99609.88;4124650;28;20234;-73
2022/06/04 07:33:22;;;;;;;18.58;16.65;;;;;;;25.72;51.43;99630.31;4125178;28;20317;-74
2022/06/04 07:35:24;;;;;;;17.92;16.33;;;;;;;25.22;52.63;99627.78;4126401;28;21053;-74
2022/06/04 07:37:27;;;;;;;16.85;15.15;;;;;;;23.03;57.79;99630.06;4123281;28;20841;-75
2022/06/04 07:39:29;;;;;;;16.90;15.18;;;;;;;24.04;55.94;99620.19;4125069;28;20753;-74
2022/06/04 07:41:36;;;;;;;18.85;16.05;;;;;;;25.00;53.43;99627.03;4125916;28;20297;-74
2022/06/04 07:43:38;;;;;;;16.77;15.27;;;;;;;24.67;54.82;99616.06;4123587;28;20225;-74
2022/06/04 07:45:40;;;;;;;18.67;15.50;;;;;;;25.59;52.44;99621.56;4125316;28;20230;-74
2022/06/04 07:47:44;;;;;;;15.95;14.45;;;;;;;25.27;53.11;99634.31;4126887;28;20245;-74
2022/06/04 07:49:45;;;;;;;17.02;15.02;;;;;;;25.73;51.73;99634.69;4120377;28;20234;-73
2022/06/04 07:51:47;;;;;;;18.55;16.75;;;;;;;25.82;52.06;99646.72;4128625;28;20307;-73
2022/06/04 07:53:49;;;;;;;18.30;16.38;;;;;;;24.63;54.98;99644.03;4125987;28;20291;-73
2022/06/04 07:55:51;;;;;;;18.13;16.33;;;;;;;25.30;53.11;99639.25;4119697;28;20242;-74
2022/06/04 07:57:59;;;;;;;18.08;16.27;;;;;;;25.13;53.86;99644.81;4118470;28;20756;-73
2022/06/04 08:00:01;;;;;;;19.10;17.33;;;;;;;25.68;52.86;99634.66;4123655;28;20234;-74
2022/06/04 08:02:03;;;;;;;19.33;17.50;;;;;;;25.97;52.02;99632.41;4123140;28;20241;-74
2022/06/04 08:04:05;;;;;;;20.00;17.88;;;;;;;26.06;51.74;99646.34;4124840;28;20238;-74
2022/06/04 08:06:07;;;;;;;18.90;17.10;;;;;;;25.72;52.57;99647.47;4121649;28;20250;-74
2022/06/04 08:08:09;;;;;;;18.67;16.80;;;;;;;26.29;51.29;99645.91;4126623;28;20242;-73
2022/06/04 08:10:12;;;;;;;18.23;16.38;;;;;;;25.71;53.38;99645.84;4125459;28;20230;-73
2022/06/04 08:12:15;;;;;;;19.45;17.55;;;;;;;26.13;52.08;99655.94;4126175;28;20237;-74
2022/06/04 08:14:23;;;;;;;20.15;18.25;;;;;;;26.07;51.56;99656.97;4123258;28;20790;-74
2022/06/04 08:16:26;;;;;;;19.10;17.10;;;;;;;25.68;52.68;99653.69;4124596;28;20291;-75
2022/06/04 08:18:28;;;;;;;19.88;18.00;;;;;;;26.14;51.45;99649.38;4121937;28;20889;-73
2022/06/04 08:20:29;;;;;;;21.25;19.10;;;;;;;25.68;52.43;99654.53;4111691;28;20990;-74
2022/06/04 08:22:31;;;;;;;20.55;18.42;;;;;;;25.80;52.34;99659.78;4111194;28;20243;-73
2022/06/04 08:24:33;;;;;;;21.65;19.45;;;;;;;25.89;52.06;99655.47;4111220;28;20305;-74
2022/06/04 08:26:34;;;;;;;20.42;18.48;;;;;;;26.19;51.21;99662.22;4122539;28;20245;-74
2022/06/04 08:28:36;;;;;;;21.50;19.40;;;;;;;25.85;52.13;99675.34;4125606;28;20309;-75
2022/06/04 08:30:38;;;;;;;20.30;18.20;;;;;;;26.34;51.51;99665.00;4153405;28;20307;-75
2022/06/04 08:32:40;;;;;;;19.42;17.63;;;;;;;26.18;51.08;99679.63;4123555;28;20226;-74
2022/06/04 08:34:42;;;;;;;19.30;17.45;;;;;;;25.91;52.30;99677.84;4124223;28;20683;-74
2022/06/04 08:36:43;;;;;;;19.17;17.20;;;;;;;26.00;52.19;99680.91;4127214;28;20288;-75
2022/06/04 08:38:46;;;;;;;18.55;16.83;;;;;;;25.70;52.00;99686.97;4124213;28;20229;-74
2022/06/04 08:40:54;;;;;;;18.70;16.63;;;;;;;25.85;52.53;99686.25;4126344;28;20233;-74
2022/06/04 08:43:34;;;;;;;18.08;16.15;;;;;;;25.24;53.60;99690.09;4120042;28;20237;-75
2022/06/04 08:45:38;;;;;;;18.10;16.40;;;;;;;25.59;53.26;99675.16;4115749;28;20265;-74
2022/06/04 08:47:45;;;;;;;18.50;16.70;;;;;;;25.57;52.92;99680.84;4111587;28;20245;-72
2022/06/04 08:50:09;;;;;;;18.70;16.25;;;;;;;25.31;53.77;99685.25;4124002;28;20236;-74
2022/06/04 08:52:20;;;;;;;17.80;16.10;;;;;;;25.55;53.20;99682.22;4121968;28;20273;-72
2022/06/04 08:59:35;;;;;;;19.13;17.23;;;;;;;25.52;53.04;99686.25;4110219;28;20283;-73
2022/06/04 09:01:45;;;;;;;17.63;15.77;;;;;;;26.12;51.50;99697.88;4119274;28;20230;-73
2022/06/04 09:04:24;;;;;;;17.17;15.68;;;;;;;25.84;52.16;99704.47;4128965;28;20718;-73
2022/06/04 09:06:34;;;;;;;17.27;15.48;;;;;;;25.62;53.17;99712.75;4132153;28;20256;-73
2022/06/04 09:08:39;;;;;;;17.13;15.50;;;;;;;24.93;54.47;99721.59;4127157;28;20303;-73
2022/06/04 09:10:51;;;;;;;20.15;15.65;;;;;;;24.94;54.68;99707.75;4124928;28;20669;-72
2022/06/04 09:12:58;;;;;;;15.40;13.77;;;;;;;25.15;54.71;99702.50;4151165;28;20289;-74
2022/06/04 09:15:22;;;;;;;16.13;14.52;;;;;;;26.27;51.72;99710.75;4124197;28;20721;-73
2022/06/04 09:17:52;;;;;;;15.80;14.30;;;;;;;26.10;52.41;99712.81;4125582;28;20233;-73
2022/06/04 09:19:58;;;;;;;15.35;13.80;;;;;;;25.70;53.50;99722.34;4121514;28;20663;-73
2022/06/04 09:22:00;;;;;;;13.73;12.52;;;;;;;25.52;53.24;99718.94;4126831;28;20242;-73
2022/06/04 09:24:02;;;;;;;12.35;11.20;;;;;;;25.76;53.14;99724.00;4123009;28;20238;-74
2022/06/04 09:26:13;;;;;;;12.85;11.57;;;;;;;25.66;52.80;99726.66;4127109;28;20583;-73
2022/06/04 09:28:27;;;;;;;12.65;11.45;;;;;;;25.87;52.86;99725.75;4125483;28;20969;-72
2022/06/04 09:30:52;;;;;;;13.20;11.95;;;;;;;26.31;52.36;99728.22;4125727;28;20315;-72
2022/06/04 09:33:00;;;;;;;12.70;11.52;;;;;;;26.41;51.63;99732.91;4120544;28;20233;-72
2022/06/04 09:35:03;;;;;;;12.52;11.20;;;;;;;25.79;53.12;99737.94;4125657;28;20338;-74
2022/06/04 09:37:08;;;;;;;13.48;12.07;;;;;;;26.20;52.39;99734.72;4126901;28;20246;-73
2022/06/04 09:39:40;;;;;;;12.45;11.25;;;;;;;26.61;52.07;99734.94;4116367;28;20242;-74
2022/06/04 09:41:51;;;;;;;14.00;12.68;;;;;;;26.13;52.64;99728.66;4124132;28;20777;-74
2022/06/04 09:44:15;;;;;;;12.80;11.48;;;;;;;26.62;51.50;99736.59;4125107;28;20241;-74
2022/06/04 09:46:24;;;;;;;13.65;12.35;;;;;;;26.65;51.74;99724.31;4127382;28;20230;-74
2022/06/04 09:48:36;;;;;;;13.82;12.45;;;;;;;26.33;52.05;99733.41;4126621;28;20321;-73
2022/06/04 09:50:37;;;;;;;14.45;13.05;;;;;;;25.76;53.54;99719.41;4127026;28;20237;-74
2022/06/04 09:52:43;;;;;;;14.52;13.23;;;;;;;26.46;51.38;99732.13;4125185;28;20988;-73
2022/06/04 09:54:56;;;;;;;13.98;12.63;;;;;;;26.76;51.73;99727.88;4122793;28;20287;-73
2022/06/04 09:57:02;;;;;;;13.55;12.27;;;;;;;26.43;52.57;99743.53;4129621;28;20232;-74
2022/06/04 09:59:30;;;;;;;13.25;12.07;;;;;;;26.55;52.82;99725.09;4126577;28;20357;-74